Time;durP1;ratioP1;P1;durP2;ratioP2;P2;SDS_P1;SDS_P2;PMS_P1;PMS_P2;Temp;Humidity;BMP_temperature;BMP_pressure;BME280_temperature;BME280_humidity;BME280_pressure;Samples;Min_cycle;Max_cycle;Signal;HPM_P1;HPM_P2
2023/07/02 00:02:19;;;;;;;4.38;2.97;;;17.70;99.90;;;;;;5021890;28;20034;-42
2023/07/02 00:04:44;;;;;;;2.90;2.60;;;17.70;99.90;;;;;;5023116;28;20051;-39
2023/07/02 00:07:10;;;;;;;4.38;2.92;;;17.60;99.90;;;;;;5024540;28;20044;-41
2023/07/02 00:09:36;;;;;;;4.22;2.70;;;17.50;99.90;;;;;;5029930;28;20028;-42
2023/07/02 00:12:02;;;;;;;3.15;2.80;;;17.50;99.90;;;;;;5023565;28;20038;-41
2023/07/02 00:14:27;;;;;;;5.47;3.00;;;17.50;99.90;;;;;;5027764;28;20551;-39
2023/07/02 00:16:53;;;;;;;2.70;2.50;;;17.50;99.90;;;;;;5026558;28;20556;-37
2023/07/02 00:19:18;;;;;;;3.03;2.72;;;17.50;99.90;;;;;;5026494;28;20395;-42
2023/07/02 00:21:44;;;;;;;3.65;2.75;;;17.50;99.90;;;;;;5021218;28;20091;-40
2023/07/02 00:24:10;;;;;;;3.13;2.83;;;17.50;99.90;;;;;;5023965;28;20037;-42
2023/07/02 00:26:40;;;;;;;3.67;2.80;;;17.40;99.90;;;;;;5023003;28;20100;-39
2023/07/02 00:29:07;;;;;;;4.07;2.50;;;17.50;99.90;;;;;;5025700;28;20992;-40
2023/07/02 00:31:33;;;;;;;3.53;2.50;;;17.40;99.90;;;;;;5023899;28;20033;-42
2023/07/02 00:34:00;;;;;;;2.78;2.50;;;17.40;99.90;;;;;;5022068;28;20025;-42
2023/07/02 00:36:26;;;;;;;2.73;2.47;;;17.40;99.90;;;;;;5021083;28;20034;-40
2023/07/02 00:38:52;;;;;;;2.58;2.30;;;17.40;99.90;;;;;;5023963;28;20037;-39
2023/07/02 00:41:18;;;;;;;2.10;1.90;;;17.40;99.90;;;;;;5027505;28;20402;-40
2023/07/02 00:43:43;;;;;;;3.70;2.60;;;17.40;99.90;;;;;;5024368;28;20018;-42
2023/07/02 00:46:22;;;;;;;2.15;2.03;;;17.40;99.90;;;;;;5025979;28;20437;-40
2023/07/02 00:48:50;;;;;;;2.30;2.08;;;17.40;99.90;;;;;;5022905;28;20080;-40
2023/07/02 00:51:26;;;;;;;2.65;2.20;;;17.40;99.90;;;;;;5024892;28;20144;-41
2023/07/02 00:53:54;;;;;;;2.47;2.22;;;17.40;99.90;;;;;;5019290;28;20038;-42
2023/07/02 00:56:20;;;;;;;;;;;17.50;99.90;;;;;;5024654;28;20021;-39
2023/07/02 00:58:50;;;;;;;2.30;2.00;;;17.40;99.90;;;;;;5017215;28;19924;-42
2023/07/02 01:01:20;;;;;;;3.30;2.20;;;17.40;99.90;;;;;;5021486;28;20048;-38
2023/07/02 01:04:00;;;;;;;2.47;2.20;;;17.40;99.90;;;;;;5021037;28;20049;-40
2023/07/02 01:06:28;;;;;;;2.97;2.28;;;17.50;99.90;;;;;;5020730;28;20466;-34
2023/07/02 01:09:03;;;;;;;;;;;17.50;99.90;;;;;;5016463;28;20507;-42
2023/07/02 01:11:33;;;;;;;3.40;2.20;;;17.40;99.90;;;;;;5017292;28;19913;-42
2023/07/02 01:14:16;;;;;;;4.00;2.40;;;17.40;99.90;;;;;;5021050;28;20037;-42
2023/07/02 01:16:43;;;;;;;2.63;2.10;;;17.30;99.90;;;;;;5024916;28;20084;-38
2023/07/02 01:19:19;;;;;;;2.95;2.25;;;17.40;99.90;;;;;;5022339;28;20048;-42
2023/07/02 01:21:49;;;;;;;2.58;1.90;;;17.40;99.90;;;;;;5022877;28;20573;-38
2023/07/02 01:24:16;;;;;;;2.03;1.83;;;17.40;99.90;;;;;;5020108;28;20029;-41
2023/07/02 01:26:42;;;;;;;2.10;1.90;;;17.40;99.90;;;;;;5021810;28;20406;-42
2023/07/02 01:29:19;;;;;;;2.03;1.75;;;17.30;99.90;;;;;;5023771;28;20041;-39
2023/07/02 01:31:45;;;;;;;2.15;1.88;;;17.30;99.90;;;;;;5026984;28;20495;-41
2023/07/02 01:34:12;;;;;;;2.53;1.90;;;17.40;99.90;;;;;;5022233;28;20125;-38
2023/07/02 01:36:38;;;;;;;1.88;1.70;;;17.30;99.90;;;;;;5023356;28;20040;-42
2023/07/02 01:39:04;;;;;;;1.98;1.88;;;17.30;99.90;;;;;;5026518;28;20025;-41
2023/07/02 01:41:29;;;;;;;1.80;1.70;;;17.40;99.90;;;;;;5024855;28;20499;-40
2023/07/02 01:43:55;;;;;;;1.80;1.70;;;17.40;99.90;;;;;;5022185;28;20044;-39
2023/07/02 01:46:21;;;;;;;1.98;1.60;;;17.30;99.90;;;;;;5023925;28;20021;-39
2023/07/02 01:48:47;;;;;;;2.53;1.67;;;17.30;99.90;;;;;;5027445;28;20040;-42
2023/07/02 01:51:13;;;;;;;2.20;2.00;;;17.40;99.90;;;;;;5023355;28;20056;-42
2023/07/02 01:53:39;;;;;;;3.33;1.83;;;17.30;99.90;;;;;;5010076;28;20025;-41
2023/07/02 01:56:05;;;;;;;3.30;2.10;;;16.80;99.90;;;;;;5020945;28;20517;-41
2023/07/02 01:58:30;;;;;;;2.55;2.15;;;16.60;99.90;;;;;;5024981;28;20033;-41
2023/07/02 02:00:56;;;;;;;2.25;2.10;;;16.40;99.90;;;;;;5021455;28;20041;-41
2023/07/02 02:03:22;;;;;;;2.83;1.83;;;16.30;99.90;;;;;;5022187;28;20029;-41
2023/07/02 02:05:47;;;;;;;2.80;1.80;;;16.20;99.90;;;;;;5002705;28;20057;-42
2023/07/02 02:08:13;;;;;;;4.05;2.38;;;16.10;99.90;;;;;;5023160;28;20133;-42
2023/07/02 02:10:39;;;;;;;2.90;2.08;;;16.20;99.90;;;;;;5021574;28;20120;-39
2023/07/02 02:13:05;;;;;;;2.72;1.98;;;16.20;99.90;;;;;;5021292;28;20041;-41
2023/07/02 02:15:30;;;;;;;3.92;1.98;;;16.40;99.90;;;;;;5022108;28;20030;-41
2023/07/02 02:17:56;;;;;;;5.07;2.30;;;16.40;99.90;;;;;;5025028;28;20037;-39
2023/07/02 02:20:21;;;;;;;2.17;1.95;;;16.50;99.90;;;;;;5025163;28;20038;-41
2023/07/02 02:22:47;;;;;;;3.50;2.28;;;16.50;99.90;;;;;;5024613;28;20018;-40
2023/07/02 02:25:13;;;;;;;2.53;2.00;;;16.60;99.90;;;;;;5020571;28;20041;-37
2023/07/02 02:27:38;;;;;;;2.67;2.10;;;16.70;99.90;;;;;;5024325;28;20033;-38
2023/07/02 02:30:05;;;;;;;4.57;2.30;;;16.60;99.90;;;;;;5024327;28;20069;-41
2023/07/02 02:32:30;;;;;;;3.75;2.28;;;16.50;99.90;;;;;;5021090;28;20049;-39
2023/07/02 02:34:56;;;;;;;2.40;2.03;;;16.50;99.90;;;;;;5019013;28;20029;-39
2023/07/02 02:37:23;;;;;;;3.55;2.20;;;16.50;99.90;;;;;;5023126;28;20144;-42
2023/07/02 02:39:49;;;;;;;5.32;2.45;;;16.50;99.90;;;;;;5019104;28;20502;-40
2023/07/02 02:42:15;;;;;;;3.78;2.20;;;16.50;99.90;;;;;;5020152;28;20025;-42
2023/07/02 02:44:40;;;;;;;2.17;1.98;;;16.50;99.90;;;;;;5017922;28;20089;-39
2023/07/02 02:47:06;;;;;;;7.47;2.67;;;16.50;99.90;;;;;;5023394;28;20033;-40
2023/07/02 02:49:31;;;;;;;3.75;2.40;;;16.40;99.90;;;;;;5025826;28;20151;-40
2023/07/02 02:51:57;;;;;;;3.08;2.20;;;16.30;99.90;;;;;;5021340;28;20029;-41
2023/07/02 02:54:22;;;;;;;3.05;2.38;;;16.40;99.90;;;;;;5020063;28;20030;-41
2023/07/02 02:56:48;;;;;;;3.08;2.10;;;16.40;99.90;;;;;;5026118;28;20048;-41
2023/07/02 02:59:14;;;;;;;2.72;2.15;;;16.50;99.90;;;;;;5024657;28;20187;-42
2023/07/02 03:01:39;;;;;;;2.85;2.10;;;16.40;99.90;;;;;;5021024;28;20045;-42
2023/07/02 03:04:08;;;;;;;2.92;2.45;;;16.50;99.90;;;;;;5022581;28;20029;-39
2023/07/02 03:06:33;;;;;;;3.67;2.50;;;16.50;99.90;;;;;;5020431;28;20026;-40
2023/07/02 03:08:59;;;;;;;5.72;2.70;;;16.50;99.90;;;;;;5021203;28;20056;-33
2023/07/02 03:11:24;;;;;;;4.18;2.22;;;16.50;99.90;;;;;;5021974;28;20084;-33
2023/07/02 03:13:50;;;;;;;2.72;2.50;;;16.50;99.90;;;;;;5021453;28;20073;-35
2023/07/02 03:16:16;;;;;;;2.60;2.40;;;16.50;99.90;;;;;;5021684;28;20513;-35
2023/07/02 03:18:41;;;;;;;6.05;2.42;;;16.50;99.90;;;;;;5022626;28;20064;-31
2023/07/02 03:21:07;;;;;;;4.50;2.50;;;16.50;99.90;;;;;;5022493;28;20033;-32
2023/07/02 03:23:32;;;;;;;3.90;2.67;;;16.40;99.90;;;;;;5030985;28;20546;-31
2023/07/02 03:25:58;;;;;;;2.88;2.45;;;16.30;99.90;;;;;;5029311;28;20363;-30
2023/07/02 03:28:26;;;;;;;3.70;2.67;;;16.30;99.90;;;;;;5022230;28;20509;-31
2023/07/02 03:30:52;;;;;;;2.65;2.40;;;16.30;99.90;;;;;;5022885;28;20068;-32
2023/07/02 03:33:17;;;;;;;3.35;2.40;;;16.20;99.90;;;;;;5023986;28;20402;-31
2023/07/02 03:35:43;;;;;;;2.78;2.50;;;16.20;99.90;;;;;;5028523;28;20121;-31
2023/07/02 03:38:08;;;;;;;2.92;2.50;;;16.10;99.90;;;;;;5028541;28;20045;-32
2023/07/02 03:40:34;;;;;;;7.03;2.90;;;16.10;99.90;;;;;;5029523;28;20530;-31
2023/07/02 03:43:00;;;;;;;4.00;2.40;;;16.00;99.90;;;;;;5032096;28;20069;-31
2023/07/02 03:45:25;;;;;;;3.25;2.70;;;16.00;99.90;;;;;;5029788;28;20079;-31
2023/07/02 03:47:51;;;;;;;3.33;2.55;;;16.00;99.90;;;;;;5029227;28;20080;-32
2023/07/02 03:50:17;;;;;;;2.42;2.25;;;16.00;99.90;;;;;;5030765;28;20025;-31
2023/07/02 03:52:43;;;;;;;2.60;2.40;;;16.10;99.90;;;;;;5027112;28;20030;-32
2023/07/02 03:55:09;;;;;;;3.60;2.17;;;16.10;99.90;;;;;;5028178;28;20060;-30
2023/07/02 03:57:34;;;;;;;3.25;2.45;;;16.10;99.90;;;;;;5025083;28;20040;-31
2023/07/02 04:00:00;;;;;;;2.63;2.30;;;16.10;99.90;;;;;;5030592;28;20037;-30
2023/07/02 04:02:25;;;;;;;4.18;2.40;;;16.00;99.90;;;;;;5026303;28;20513;-31
2023/07/02 04:04:51;;;;;;;2.78;2.53;;;16.00;99.90;;;;;;5027302;28;20021;-31
2023/07/02 04:07:16;;;;;;;3.83;2.72;;;16.00;99.90;;;;;;5030613;28;20384;-32
2023/07/02 04:09:42;;;;;;;4.22;2.58;;;16.10;99.90;;;;;;5027253;28;20423;-32
2023/07/02 04:12:08;;;;;;;3.33;2.50;;;16.20;99.90;;;;;;5024344;28;20030;-31
2023/07/02 04:14:33;;;;;;;3.45;2.35;;;16.20;99.90;;;;;;5024307;28;20033;-31
2023/07/02 04:16:59;;;;;;;3.30;2.45;;;16.10;99.90;;;;;;5025954;28;20502;-31
2023/07/02 04:19:24;;;;;;;3.90;2.45;;;16.20;99.90;;;;;;5026599;28;20030;-37
2023/07/02 04:21:50;;;;;;;2.47;2.28;;;16.20;99.90;;;;;;5028079;28;20503;-31
2023/07/02 04:24:16;;;;;;;3.30;2.70;;;16.20;99.90;;;;;;5032010;28;20034;-34
2023/07/02 04:26:42;;;;;;;3.47;2.50;;;16.20;99.90;;;;;;5024193;28;20018;-32
2023/07/02 04:29:11;;;;;;;3.35;2.03;;;16.20;99.90;;;;;;5026790;28;20061;-36
2023/07/02 04:31:37;;;;;;;3.65;2.40;;;16.20;99.90;;;;;;5023449;28;20036;-41
2023/07/02 04:34:05;;;;;;;2.60;2.40;;;16.20;99.90;;;;;;5026776;28;20034;-41
2023/07/02 04:36:31;;;;;;;;;;;16.20;99.90;;;;;;5023797;28;20025;-40
2023/07/02 04:38:56;;;;;;;2.90;2.63;;;16.20;99.90;;;;;;5024100;28;19983;-40
2023/07/02 04:41:22;;;;;;;2.30;2.10;;;16.20;99.90;;;;;;5021977;28;20376;-42
2023/07/02 04:43:48;;;;;;;3.10;2.25;;;16.20;99.90;;;;;;5023842;28;20091;-41
2023/07/02 04:46:14;;;;;;;2.88;2.40;;;16.20;99.90;;;;;;5025172;28;20034;-42
2023/07/02 04:48:39;;;;;;;4.85;2.58;;;16.20;99.90;;;;;;5021924;28;20034;-42
2023/07/02 04:51:05;;;;;;;3.38;2.45;;;16.30;99.90;;;;;;5024326;28;20771;-36
2023/07/02 04:53:30;;;;;;;3.65;2.63;;;16.30;99.90;;;;;;5022306;28;20100;-42
2023/07/02 04:55:59;;;;;;;2.70;2.45;;;16.30;99.90;;;;;;5026605;28;20083;-41
2023/07/02 04:58:24;;;;;;;3.45;2.72;;;16.20;99.90;;;;;;5027954;28;20029;-41
2023/07/02 05:00:50;;;;;;;5.60;2.75;;;16.10;99.90;;;;;;5027420;28;20696;-40
2023/07/02 05:03:15;;;;;;;4.28;2.70;;;16.20;99.90;;;;;;5025512;28;20029;-38
2023/07/02 05:05:41;;;;;;;3.30;2.67;;;16.20;99.90;;;;;;5027480;28;20018;-40
2023/07/02 05:08:07;;;;;;;2.95;2.65;;;16.20;99.90;;;;;;5022822;28;20056;-41
2023/07/02 05:10:32;;;;;;;2.72;2.42;;;16.30;99.90;;;;;;5022718;28;20022;-41
2023/07/02 05:12:58;;;;;;;2.83;2.60;;;16.30;99.90;;;;;;5021526;28;20107;-41
2023/07/02 05:15:24;;;;;;;3.97;2.90;;;16.30;99.90;;;;;;5026781;28;20025;-42
2023/07/02 05:17:49;;;;;;;4.53;3.08;;;16.20;99.90;;;;;;5026485;28;20078;-41
2023/07/02 05:20:15;;;;;;;3.83;2.83;;;16.10;99.90;;;;;;5023338;28;20018;-42
2023/07/02 05:22:40;;;;;;;3.33;2.83;;;16.00;99.90;;;;;;5023953;28;20061;-38
2023/07/02 05:25:06;;;;;;;3.80;2.85;;;16.10;99.90;;;;;;5020703;28;20055;-42
2023/07/02 05:27:32;;;;;;;4.40;3.08;;;16.20;99.90;;;;;;5018937;28;20025;-41
2023/07/02 05:29:58;;;;;;;6.22;3.08;;;16.20;99.90;;;;;;5025783;28;20121;-42
2023/07/02 05:32:23;;;;;;;5.63;2.72;;;16.20;99.90;;;;;;5023627;28;20487;-41
2023/07/02 05:34:49;;;;;;;8.05;3.17;;;16.30;99.90;;;;;;5025567;28;20025;-39
2023/07/02 05:37:14;;;;;;;3.97;2.75;;;16.30;99.90;;;;;;5004212;28;20037;-39
2023/07/02 05:39:40;;;;;;;6.18;3.20;;;16.30;99.90;;;;;;5023569;28;20036;-32
2023/07/02 05:42:05;;;;;;;3.33;2.90;;;16.30;99.90;;;;;;5023278;28;20060;-33
2023/07/02 05:44:31;;;;;;;2.55;2.15;;;16.20;99.90;;;;;;5026605;28;20021;-30
2023/07/02 05:46:57;;;;;;;3.15;2.60;;;16.10;99.90;;;;;;5024951;28;20029;-34
2023/07/02 05:49:22;;;;;;;4.03;2.65;;;16.20;99.90;;;;;;5024268;28;20061;-31
2023/07/02 05:51:48;;;;;;;3.55;2.50;;;16.20;99.90;;;;;;5025351;28;20095;-31
2023/07/02 05:54:14;;;;;;;3.03;2.42;;;16.20;99.90;;;;;;5028506;28;20025;-31
2023/07/02 05:56:39;;;;;;;3.17;2.88;;;16.20;99.90;;;;;;5026549;28;20021;-34
2023/07/02 05:59:05;;;;;;;5.03;2.80;;;16.30;99.90;;;;;;5024212;28;20053;-33
2023/07/02 06:01:30;;;;;;;4.53;2.80;;;16.30;99.90;;;;;;5024060;28;20056;-32
2023/07/02 06:03:56;;;;;;;6.05;3.10;;;16.30;99.90;;;;;;5024517;28;20029;-32
2023/07/02 06:06:24;;;;;;;2.88;2.67;;;16.30;99.90;;;;;;5024577;28;20087;-31
2023/07/02 06:08:50;;;;;;;6.00;2.92;;;16.30;99.90;;;;;;5028196;28;20471;-31
2023/07/02 06:11:15;;;;;;;3.72;2.78;;;16.20;99.90;;;;;;5025377;28;20034;-29
2023/07/02 06:13:41;;;;;;;6.07;3.00;;;16.20;99.90;;;;;;5008284;28;20091;-31
2023/07/02 06:16:07;;;;;;;3.13;2.58;;;16.30;99.90;;;;;;5024637;28;20132;-31
2023/07/02 06:18:32;;;;;;;5.35;3.13;;;16.30;99.90;;;;;;5001749;28;20030;-31
2023/07/02 06:20:58;;;;;;;3.35;3.00;;;16.20;99.90;;;;;;5020045;28;20080;-30
2023/07/02 06:23:24;;;;;;;5.25;3.30;;;16.20;99.90;;;;;;5022483;28;20021;-31
2023/07/02 06:25:52;;;;;;;3.38;2.42;;;16.20;99.90;;;;;;5018996;28;20060;-30
2023/07/02 06:28:18;;;;;;;3.88;2.92;;;16.30;99.90;;;;;;5024509;28;20080;-31
2023/07/02 06:30:45;;;;;;;4.05;2.85;;;16.20;99.90;;;;;;5027173;28;20090;-30
2023/07/02 06:33:10;;;;;;;4.45;2.78;;;16.20;99.90;;;;;;5022744;28;20495;-32
2023/07/02 06:35:36;;;;;;;3.45;2.70;;;16.30;99.90;;;;;;5007619;28;20037;-32
2023/07/02 06:38:01;;;;;;;3.88;2.83;;;16.30;99.90;;;;;;5027852;28;20025;-30
2023/07/02 06:40:27;;;;;;;4.60;2.63;;;16.30;99.90;;;;;;5009462;28;20399;-32
2023/07/02 06:42:53;;;;;;;3.58;2.70;;;16.30;99.90;;;;;;5025112;28;20029;-31
2023/07/02 06:45:18;;;;;;;6.43;2.92;;;16.30;99.90;;;;;;5023140;28;20018;-31
2023/07/02 06:47:44;;;;;;;3.80;2.60;;;16.40;99.90;;;;;;5021558;28;20033;-31
2023/07/02 06:50:09;;;;;;;3.50;2.80;;;16.40;99.90;;;;;;5007657;28;20036;-31
2023/07/02 06:52:36;;;;;;;6.45;3.53;;;16.40;99.90;;;;;;5022616;28;20033;-31
2023/07/02 06:55:02;;;;;;;3.08;2.78;;;16.40;99.90;;;;;;5020075;28;20041;-31
2023/07/02 06:57:28;;;;;;;3.08;2.83;;;16.30;99.90;;;;;;5024752;28;20111;-32
2023/07/02 07:00:00;;;;;;;5.07;2.65;;;16.30;99.90;;;;;;5023803;28;20107;-31
2023/07/02 07:02:27;;;;;;;2.88;2.53;;;16.30;99.90;;;;;;5027097;28;20116;-31
2023/07/02 07:04:52;;;;;;;4.50;2.50;;;16.20;99.90;;;;;;5024919;28;20530;-33
2023/07/02 07:07:19;;;;;;;5.18;2.88;;;16.00;99.90;;;;;;5022569;28;20025;-31
2023/07/02 07:09:44;;;;;;;3.85;2.30;;;16.10;99.90;;;;;;5022891;28;20039;-32
2023/07/02 07:12:10;;;;;;;3.15;2.35;;;16.20;99.90;;;;;;5024301;28;20033;-31
2023/07/02 07:14:36;;;;;;;4.53;2.60;;;16.20;99.90;;;;;;5032312;28;20036;-32
2023/07/02 07:17:02;;;;;;;5.65;2.83;;;16.30;99.90;;;;;;5029637;28;20037;-31
2023/07/02 07:19:28;;;;;;;3.33;2.92;;;16.40;99.90;;;;;;5025490;28;20096;-31
2023/07/02 07:21:53;;;;;;;3.08;2.60;;;16.50;99.90;;;;;;5030252;28;20060;-37
2023/07/02 07:24:19;;;;;;;2.55;2.35;;;16.50;99.90;;;;;;5025784;28;20025;-31
2023/07/02 07:26:45;;;;;;;2.72;2.45;;;16.40;99.90;;;;;;5026744;28;20040;-31
2023/07/02 07:29:11;;;;;;;2.60;2.40;;;16.50;99.90;;;;;;5027315;28;20085;-32
2023/07/02 07:31:37;;;;;;;4.65;2.13;;;16.60;99.90;;;;;;5025725;28;20045;-32
2023/07/02 07:34:02;;;;;;;2.65;2.22;;;16.70;99.90;;;;;;5028088;28;20036;-30
2023/07/02 07:36:28;;;;;;;2.58;2.38;;;16.70;99.90;;;;;;5030804;28;20441;-32
2023/07/02 07:38:53;;;;;;;3.55;2.30;;;16.70;99.90;;;;;;5027566;28;20044;-32
2023/07/02 07:41:19;;;;;;;3.05;2.63;;;16.90;99.90;;;;;;5025675;28;20063;-30
2023/07/02 07:43:44;;;;;;;6.63;2.55;;;17.00;99.90;;;;;;5027083;28;20395;-34
2023/07/02 07:46:10;;;;;;;4.13;2.67;;;17.20;99.90;;;;;;5026331;28;20656;-31
2023/07/02 07:48:36;;;;;;;4.53;2.60;;;17.10;99.90;;;;;;5027083;28;20056;-30
2023/07/02 07:51:01;;;;;;;3.97;2.80;;;17.20;99.90;;;;;;5027373;28;20034;-32
2023/07/02 07:53:27;;;;;;;5.00;3.47;;;17.20;99.90;;;;;;5028914;28;20044;-36
2023/07/02 07:55:53;;;;;;;4.85;2.90;;;17.20;99.90;;;;;;5020677;28;20242;-31
2023/07/02 07:58:18;;;;;;;12.90;3.45;;;17.30;99.90;;;;;;5023806;28;20029;-33
2023/07/02 08:00:44;;;;;;;5.85;3.33;;;17.20;99.90;;;;;;5018221;28;20056;-32
2023/07/02 08:03:10;;;;;;;4.53;3.17;;;17.20;99.90;;;;;;5021023;28;20137;-33
2023/07/02 08:05:35;;;;;;;5.45;3.50;;;17.40;99.90;;;;;;5028505;28;20021;-33
2023/07/02 08:08:01;;;;;;;6.38;4.00;;;17.50;99.90;;;;;;5027763;28;20072;-34
2023/07/02 08:10:27;;;;;;;8.07;4.50;;;17.90;99.90;;;;;;5013334;28;20033;-33
2023/07/02 08:12:53;;;;;;;7.43;3.67;;;18.30;99.90;;;;;;5023011;28;20040;-33
2023/07/02 08:15:19;;;;;;;8.32;3.90;;;18.10;99.90;;;;;;5018791;28;20037;-34
2023/07/02 08:17:44;;;;;;;8.55;4.28;;;18.00;99.90;;;;;;5025487;28;20036;-34
2023/07/02 08:20:11;;;;;;;8.07;3.67;;;18.30;99.90;;;;;;5003426;28;20542;-32
2023/07/02 08:22:38;;;;;;;6.68;4.00;;;18.20;99.90;;;;;;5025097;28;20040;-33
2023/07/02 08:25:04;;;;;;;9.60;4.87;;;18.60;99.90;;;;;;5021660;28;20029;-36
2023/07/02 08:27:30;;;;;;;11.05;5.57;;;18.90;99.90;;;;;;5023142;28;20282;-32
2023/07/02 08:29:55;;;;;;;7.53;4.63;;;19.20;99.90;;;;;;5022783;28;20450;-35
2023/07/02 08:32:21;;;;;;;6.40;3.55;;;19.00;99.90;;;;;;5019714;28;20037;-34
2023/07/02 08:34:47;;;;;;;8.90;4.43;;;18.70;99.90;;;;;;5022162;28;20029;-35
2023/07/02 08:37:12;;;;;;;7.57;3.90;;;18.30;99.90;;;;;;5019243;28;20069;-33
2023/07/02 08:39:42;;;;;;;9.07;5.53;;;18.40;99.90;;;;;;5023376;28;20033;-33
2023/07/02 08:42:08;;;;;;;8.60;4.30;;;18.20;99.90;;;;;;5021921;28;20053;-33
2023/07/02 08:44:35;;;;;;;7.05;4.55;;;18.20;99.90;;;;;;5021057;28;20483;-33
2023/07/02 08:47:01;;;;;;;7.88;4.20;;;18.50;99.90;;;;;;5023771;28;20057;-33
2023/07/02 08:49:26;;;;;;;6.45;4.30;;;18.60;99.90;;;;;;5017983;28;20064;-33
2023/07/02 08:51:52;;;;;;;9.98;4.38;;;18.70;99.90;;;;;;5019181;28;20033;-35
2023/07/02 08:54:18;;;;;;;7.68;4.35;;;19.00;99.90;;;;;;5024583;28;20591;-35
2023/07/02 08:56:45;;;;;;;9.52;4.40;;;18.90;99.90;;;;;;5030561;28;20033;-33
2023/07/02 08:59:11;;;;;;;7.75;4.60;;;18.90;99.90;;;;;;5024753;28;20112;-33
2023/07/02 09:01:55;;;;;;;8.30;4.35;;;18.90;99.90;;;;;;5024632;28;20030;-34
2023/07/02 09:04:25;;;;;;;7.70;4.60;;;19.00;99.90;;;;;;5025801;28;20021;-35
2023/07/02 09:07:08;;;;;;;9.13;4.97;;;19.00;99.90;;;;;;5023560;28;20033;-34
2023/07/02 09:09:46;;;;;;;8.18;5.05;;;18.90;99.90;;;;;;5023597;28;20033;-37
2023/07/02 09:12:35;;;;;;;8.40;5.03;;;18.80;99.90;;;;;;5023185;28;20444;-33
2023/07/02 09:15:03;;;;;;;9.07;4.80;;;18.80;99.90;;;;;;5025616;28;20041;-32
2023/07/02 09:17:36;;;;;;;10.98;5.03;;;18.80;99.90;;;;;;5023870;28;20030;-37
2023/07/02 09:20:08;;;;;;;7.85;4.75;;;18.90;99.90;;;;;;5023526;28;20030;-35
2023/07/02 09:22:34;;;;;;;7.85;4.47;;;19.00;99.90;;;;;;5020700;28;20052;-35
2023/07/02 09:25:01;;;;;;;9.32;5.30;;;19.50;99.90;;;;;;5021787;28;20493;-34
2023/07/02 09:27:41;;;;;;;10.57;4.97;;;19.90;99.90;;;;;;5018765;28;20029;-32
2023/07/02 09:30:15;;;;;;;8.10;4.47;;;20.20;99.90;;;;;;5026566;28;20071;-34
2023/07/02 09:32:42;;;;;;;8.13;4.32;;;20.20;99.90;;;;;;5022542;28;20040;-32
2023/07/02 09:35:08;;;;;;;6.93;3.83;;;19.60;99.90;;;;;;5021598;28;20053;-33
2023/07/02 09:37:34;;;;;;;8.88;4.85;;;19.20;99.90;;;;;;5023250;28;20072;-32
2023/07/02 09:40:01;;;;;;;8.45;4.78;;;19.10;99.90;;;;;;5020509;28;20030;-34
2023/07/02 09:42:28;;;;;;;7.55;4.72;;;19.20;99.90;;;;;;5019276;28;20033;-33
2023/07/02 09:44:55;;;;;;;8.27;4.68;;;19.30;99.90;;;;;;5025034;28;20025;-33
2023/07/02 09:47:23;;;;;;;9.68;4.97;;;19.50;99.90;;;;;;5025701;28;20063;-33
2023/07/02 09:49:59;;;;;;;9.15;4.95;;;19.80;99.90;;;;;;5028022;28;20033;-32
2023/07/02 09:52:27;;;;;;;8.00;4.43;;;19.90;99.90;;;;;;5004535;28;20037;-34
2023/07/02 09:54:53;;;;;;;10.25;4.78;;;20.10;99.90;;;;;;5018179;28;20033;-32
2023/07/02 09:57:19;;;;;;;10.50;4.80;;;20.30;99.90;;;;;;5027718;28;20045;-34
2023/07/02 09:59:45;;;;;;;8.82;4.97;;;20.30;99.90;;;;;;5020561;28;20713;-32
2023/07/02 10:02:12;;;;;;;9.98;5.32;;;20.10;99.90;;;;;;5023387;28;20731;-33
2023/07/02 10:04:46;;;;;;;9.32;5.40;;;20.00;99.90;;;;;;5025948;28;20152;-34
2023/07/02 10:07:13;;;;;;;9.68;4.72;;;20.10;99.90;;;;;;5021006;28;20033;-33
2023/07/02 10:09:42;;;;;;;9.20;4.60;;;19.90;99.90;;;;;;5020139;28;20037;-33
2023/07/02 10:12:21;;;;;;;9.07;5.13;;;19.90;99.90;;;;;;5020769;28;20155;-33
2023/07/02 10:14:49;;;;;;;9.27;5.18;;;19.80;99.90;;;;;;5020951;28;20028;-36
2023/07/02 10:17:54;;;;;;;8.68;4.70;;;19.70;99.90;;;;;;5018634;28;20033;-42
2023/07/02 10:20:40;;;;;;;9.10;5.68;;;19.60;99.90;;;;;;5009517;28;20745;-41
2023/07/02 10:23:07;;;;;;;7.55;4.88;;;19.70;99.90;;;;;;5022036;28;20025;-42
2023/07/02 10:25:37;;;;;;;7.47;4.43;;;19.90;99.90;;;;;;5022878;28;20022;-38
2023/07/02 10:28:14;;;;;;;8.60;5.28;;;20.00;99.90;;;;;;5019279;28;20083;-40
2023/07/02 10:30:40;;;;;;;5.13;3.35;;;20.10;99.90;;;;;;5019958;28;20205;-35
2023/07/02 10:33:17;;;;;;;5.22;3.85;;;20.10;99.90;;;;;;5019102;28;21967;-41
2023/07/02 10:35:49;;;;;;;5.25;3.63;;;20.30;99.90;;;;;;5019026;28;20113;-36
2023/07/02 10:38:22;;;;;;;7.20;3.88;;;20.40;99.90;;;;;;5017352;28;20029;-38
2023/07/02 10:40:58;;;;;;;6.95;4.03;;;20.90;99.90;;;;;;5019856;28;20026;-41
2023/07/02 10:43:28;;;;;;;6.93;4.18;;;21.40;99.90;;;;;;5022776;28;20155;-41
2023/07/02 10:45:54;;;;;;;6.70;4.50;;;21.80;99.90;;;;;;5019249;28;20048;-41
2023/07/02 10:48:20;;;;;;;7.03;4.15;;;22.20;99.90;;;;;;5019820;28;20026;-42
2023/07/02 10:50:45;;;;;;;6.60;4.03;;;22.00;99.90;;;;;;5023761;28;20061;-40
2023/07/02 10:53:18;;;;;;;7.57;4.40;;;21.90;99.90;;;;;;5020607;28;20076;-42
2023/07/02 10:55:45;;;;;;;7.30;4.13;;;21.80;99.90;;;;;;5024597;28;20026;-33
2023/07/02 10:58:11;;;;;;;6.25;3.67;;;21.70;99.90;;;;;;5017298;28;20394;-37
2023/07/02 11:00:51;;;;;;;4.78;3.60;;;21.60;99.90;;;;;;5021643;28;20478;-39
2023/07/02 11:03:17;;;;;;;7.80;3.83;;;21.90;99.90;;;;;;5021629;28;20568;-42
2023/07/02 11:05:43;;;;;;;8.48;4.85;;;22.10;99.90;;;;;;5023134;28;20028;-41
2023/07/02 11:08:09;;;;;;;10.43;4.18;;;22.60;99.90;;;;;;5020384;28;20479;-39
2023/07/02 11:10:35;;;;;;;6.82;3.97;;;22.30;99.90;;;;;;5023785;28;20103;-41
2023/07/02 11:13:13;;;;;;;8.55;5.03;;;22.10;99.90;;;;;;5022983;28;20030;-41
2023/07/02 11:15:41;;;;;;;8.70;4.50;;;21.90;99.90;;;;;;5018878;28;20045;-41
2023/07/02 11:18:15;;;;;;;9.85;5.05;;;21.60;99.90;;;;;;5020982;28;20569;-40
2023/07/02 11:20:41;;;;;;;10.23;4.40;;;21.50;99.90;;;;;;5020607;28;20034;-38
2023/07/02 11:23:24;;;;;;;8.27;4.80;;;21.30;99.90;;;;;;5020696;28;20125;-40
2023/07/02 11:25:57;;;;;;;5.90;4.55;;;21.20;99.90;;;;;;5021240;28;20088;-41
2023/07/02 11:28:23;;;;;;;7.20;4.30;;;21.00;99.90;;;;;;5021941;28;20099;-40
2023/07/02 11:30:48;;;;;;;8.32;4.68;;;20.90;99.90;;;;;;5021681;28;20034;-41
2023/07/02 11:33:14;;;;;;;9.07;4.82;;;21.00;99.90;;;;;;5017465;28;20036;-42
2023/07/02 11:35:40;;;;;;;6.70;4.35;;;21.10;99.90;;;;;;5023751;28;20087;-41
2023/07/02 11:38:06;;;;;;;8.07;4.90;;;21.20;99.90;;;;;;5022496;28;20062;-39
2023/07/02 11:40:32;;;;;;;7.88;5.28;;;21.60;99.90;;;;;;5022088;28;20498;-40
2023/07/02 11:42:57;;;;;;;9.75;4.97;;;21.90;99.90;;;;;;5020978;28;20038;-41
2023/07/02 11:45:23;;;;;;;9.25;4.70;;;22.30;99.90;;;;;;5023300;28;20437;-42
2023/07/02 11:47:49;;;;;;;7.28;5.20;;;22.60;99.90;;;;;;5019443;28;20026;-41
2023/07/02 11:50:14;;;;;;;9.43;5.35;;;22.60;99.90;;;;;;5020666;28;20061;-41
2023/07/02 11:52:40;;;;;;;8.23;5.38;;;22.50;99.90;;;;;;5020169;28;20061;-42
2023/07/02 11:55:06;;;;;;;8.15;5.78;;;22.30;99.90;;;;;;5020159;28;20112;-41
2023/07/02 11:57:31;;;;;;;10.82;5.53;;;22.40;99.90;;;;;;5022900;28;20039;-41
2023/07/02 11:59:57;;;;;;;11.15;6.72;;;22.70;99.90;;;;;;5023976;28;20048;-40
2023/07/02 12:02:23;;;;;;;9.45;5.25;;;23.10;99.90;;;;;;5024458;28;20114;-36
2023/07/02 12:04:49;;;;;;;8.90;5.50;;;23.50;99.90;;;;;;5025462;28;20112;-38
2023/07/02 12:07:14;;;;;;;8.82;5.63;;;23.40;99.90;;;;;;5024021;28;20029;-42
2023/07/02 12:09:40;;;;;;;10.80;6.30;;;23.40;99.90;;;;;;5020992;28;20066;-41
2023/07/02 12:12:06;;;;;;;12.30;6.20;;;23.60;99.90;;;;;;5021937;28;20053;-41
2023/07/02 12:14:32;;;;;;;10.02;6.40;;;23.50;99.90;;;;;;5024812;28;20057;-41
2023/07/02 12:16:58;;;;;;;10.85;5.97;;;23.90;99.90;;;;;;5022179;28;20038;-41
2023/07/02 12:19:23;;;;;;;11.02;6.68;;;24.30;99.90;;;;;;5020820;28;20030;-42
2023/07/02 12:21:49;;;;;;;11.18;6.53;;;24.60;99.90;;;;;;5025041;28;20041;-39
2023/07/02 12:24:15;;;;;;;15.57;8.00;;;24.40;99.90;;;;;;5024645;28;20029;-41
2023/07/02 12:26:41;;;;;;;13.90;7.30;;;24.00;99.90;;;;;;5024245;28;20104;-42
2023/07/02 12:29:06;;;;;;;14.35;7.40;;;23.90;99.90;;;;;;5026646;28;20040;-38
2023/07/02 12:31:32;;;;;;;10.82;7.07;;;24.00;99.90;;;;;;5024846;28;20762;-39
2023/07/02 12:33:58;;;;;;;12.95;7.55;;;24.20;99.90;;;;;;5024268;28;20029;-41
2023/07/02 12:36:24;;;;;;;15.98;7.97;;;24.60;99.90;;;;;;5026441;28;20152;-40
2023/07/02 12:38:50;;;;;;;14.32;8.35;;;25.10;99.90;;;;;;5024666;28;20137;-41
2023/07/02 12:41:15;;;;;;;18.42;8.88;;;25.10;99.90;;;;;;5024317;28;20029;-42
2023/07/02 12:43:41;;;;;;;15.00;8.90;;;24.90;99.90;;;;;;5021142;28;20029;-39
2023/07/02 12:46:07;;;;;;;15.02;9.20;;;24.80;99.90;;;;;;5024242;28;20025;-41